createdAt,value
2019-05-01T00:00:34.399Z,64.60
2019-05-01T00:03:07.154Z,64.80
2019-05-01T00:05:39.369Z,64.40
2019-05-01T00:08:10.806Z,64.90
2019-05-01T00:10:42.131Z,64.10
2019-05-01T00:13:13.336Z,64.40
2019-05-01T00:15:44.525Z,64.30
2019-05-01T00:18:15.744Z,64.10
2019-05-01T00:20:46.794Z,64.60
2019-05-01T00:23:17.635Z,63.50
2019-05-01T00:25:48.484Z,63.10
2019-05-01T00:28:19.502Z,63.30
2019-05-01T00:30:50.279Z,63.20
2019-05-01T00:33:21.364Z,62.60
2019-05-01T00:35:52.318Z,62.20
2019-05-01T00:38:23.042Z,63.40
2019-05-01T00:40:54.172Z,62.10
2019-05-01T00:43:25.115Z,62.10
2019-05-01T00:45:56.054Z,61.70
2019-05-01T00:48:27.325Z,61.10
2019-05-01T00:50:58.052Z,60.60
2019-05-01T00:53:28.833Z,60.20
2019-05-01T00:56:01.265Z,60.60
2019-05-01T00:58:31.961Z,59.90
2019-05-01T01:01:04.282Z,60.30
2019-05-01T01:03:35.366Z,59.30
2019-05-01T01:06:06.520Z,59.00
2019-05-01T01:08:37.533Z,58.40
2019-05-01T01:11:08.787Z,58.40
2019-05-01T01:13:39.557Z,58.10
2019-05-01T01:16:12.936Z,57.20
2019-05-01T01:18:43.924Z,56.60
2019-05-01T01:21:14.729Z,56.50
2019-05-01T01:23:46.252Z,56.50
2019-05-01T01:26:17.365Z,56.50
2019-05-01T01:28:48.255Z,56.10
2019-05-01T01:31:19.072Z,54.90
2019-05-01T01:33:50.220Z,54.10
2019-05-01T01:36:21.087Z,53.60
2019-05-01T01:38:52.048Z,53.60
2019-05-01T01:41:23.419Z,53.60
2019-05-01T01:43:55.602Z,53.30
2019-05-01T01:46:28.003Z,52.80
2019-05-01T01:48:59.169Z,53.10
2019-05-01T01:51:30.853Z,52.30
2019-05-01T01:54:02.512Z,51.40
2019-05-01T01:56:33.424Z,51.40
2019-05-01T01:59:04.231Z,51.10
2019-05-01T02:01:36.799Z,51.10
2019-05-01T02:04:08.416Z,51.50
2019-05-01T02:06:39.247Z,51.30
2019-05-01T02:09:11.207Z,51.70
2019-05-01T02:11:41.980Z,51.80
2019-05-01T02:14:12.872Z,51.20
2019-05-01T02:16:45.070Z,51.30
2019-05-01T02:19:15.998Z,50.90
2019-05-01T02:21:46.841Z,49.80
2019-05-01T02:24:18.091Z,50.00
2019-05-01T02:26:50.431Z,50.00
2019-05-01T02:29:22.838Z,50.30
2019-05-01T02:31:59.178Z,50.20
2019-05-01T02:34:30.741Z,49.90
2019-05-01T02:37:03.610Z,50.20
2019-05-01T02:39:36.298Z,50.10
2019-05-01T02:42:08.676Z,49.70
2019-05-01T02:44:41.939Z,49.90
2019-05-01T02:47:15.141Z,49.10
2019-05-01T02:49:46.156Z,49.00
2019-05-01T02:52:17.571Z,48.70
2019-05-01T02:54:50.356Z,48.40
2019-05-01T02:57:23.748Z,47.80
2019-05-01T02:59:55.958Z,48.20
2019-05-01T03:02:29.017Z,47.60
2019-05-01T03:04:59.195Z,47.50
2019-05-01T03:07:32.869Z,46.70
2019-05-01T03:10:08.924Z,46.60
2019-05-01T03:12:40.196Z,46.60
2019-05-01T03:15:12.497Z,47.10
2019-05-01T03:17:45.497Z,46.30
2019-05-01T03:20:18.854Z,45.80
2019-05-01T03:22:51.078Z,44.60
2019-05-01T03:25:22.105Z,43.50
2019-05-01T03:27:53.427Z,43.80
2019-05-01T03:30:24.378Z,44.40
2019-05-01T03:32:55.372Z,44.20
2019-05-01T03:35:26.494Z,43.80
2019-05-01T03:37:57.253Z,42.20
2019-05-01T03:40:28.337Z,43.10
2019-05-01T03:42:59.843Z,41.40
2019-05-01T03:45:34.092Z,41.90
2019-05-01T03:48:03.254Z,41.00
2019-05-01T03:50:34.559Z,40.00
2019-05-01T03:53:05.842Z,40.00
2019-05-01T03:55:36.940Z,40.70
2019-05-01T03:58:08.051Z,40.70
2019-05-01T04:00:39.232Z,40.40
2019-05-01T04:03:11.691Z,40.10
2019-05-01T04:05:42.998Z,40.40
2019-05-01T04:08:13.967Z,39.70
2019-05-01T04:10:44.844Z,39.80
2019-05-01T04:13:16.087Z,39.00
2019-05-01T04:15:47.337Z,40.10
2019-05-01T04:18:18.420Z,39.40
2019-05-01T04:20:49.349Z,39.70
2019-05-01T04:23:21.071Z,39.10
2019-05-01T04:25:53.140Z,39.00
2019-05-01T04:28:26.555Z,39.50
2019-05-01T04:30:59.491Z,38.50
2019-05-01T04:33:30.610Z,38.20
2019-05-01T04:36:03.309Z,38.40
2019-05-01T04:38:34.268Z,38.00
2019-05-01T04:41:05.704Z,37.90
2019-05-01T04:43:37.161Z,37.80
2019-05-01T04:46:08.621Z,37.50
2019-05-01T04:48:39.625Z,37.20
2019-05-01T04:51:11.230Z,34.80
2019-05-01T04:53:42.007Z,36.00
2019-05-01T04:56:13.183Z,35.50
2019-05-01T04:58:45.180Z,35.10
2019-05-01T05:01:16.742Z,36.30
2019-05-01T05:03:48.516Z,35.50
2019-05-01T05:06:19.796Z,36.20
2019-05-01T05:08:51.171Z,35.40
2019-05-01T05:11:24.128Z,35.80
2019-05-01T05:13:56.434Z,35.70
2019-05-01T05:16:28.954Z,35.30
2019-05-01T05:19:00.257Z,35.40
2019-05-01T05:21:31.461Z,36.00
2019-05-01T05:24:03.242Z,36.00
2019-05-01T05:26:34.590Z,35.80
2019-05-01T05:29:06.346Z,35.40
2019-05-01T05:31:38.055Z,34.30
2019-05-01T05:34:11.555Z,34.80
2019-05-01T05:36:44.423Z,33.60
2019-05-01T05:39:19.050Z,33.20
2019-05-01T05:41:52.482Z,34.30
2019-05-01T05:44:24.057Z,33.10
2019-05-01T05:46:55.143Z,33.60
2019-05-01T05:49:26.450Z,33.40
2019-05-01T05:52:00.445Z,33.70
2019-05-01T05:54:34.282Z,32.70
2019-05-01T05:57:08.825Z,31.50
2019-05-01T05:59:43.280Z,33.40
2019-05-01T06:02:17.183Z,33.00
2019-05-01T06:04:50.734Z,31.90
2019-05-01T06:07:25.438Z,30.80
2019-05-01T06:09:58.365Z,31.60
2019-05-01T06:12:31.116Z,31.40
2019-05-01T06:15:06.368Z,31.80
2019-05-01T06:17:33.670Z,30.40
2019-05-01T06:20:07.098Z,31.00
2019-05-01T06:22:40.767Z,31.80
2019-05-01T06:25:21.264Z,31.10
2019-05-01T06:27:49.292Z,30.00
2019-05-01T06:30:18.825Z,30.40
2019-05-01T06:32:49.881Z,30.60
2019-05-01T06:35:21.002Z,30.20
2019-05-01T06:37:56.063Z,30.60
2019-05-01T06:40:28.220Z,30.00
2019-05-01T06:42:58.997Z,29.00
2019-05-01T06:45:30.634Z,30.60
2019-05-01T06:48:02.992Z,29.90
2019-05-01T06:50:37.029Z,30.40
2019-05-01T06:53:07.826Z,30.50
2019-05-01T06:55:39.741Z,29.70
2019-05-01T06:58:10.448Z,31.20
2019-05-01T07:00:43.097Z,30.80
2019-05-01T07:03:14.876Z,30.10
2019-05-01T07:05:49.145Z,30.00
2019-05-01T07:08:24.832Z,29.80
2019-05-01T07:10:51.251Z,29.40
2019-05-01T07:13:21.914Z,29.90
2019-05-01T07:15:52.750Z,29.30
2019-05-01T07:18:28.821Z,29.80
2019-05-01T07:20:55.210Z,30.00
2019-05-01T07:23:26.395Z,29.10
2019-05-01T07:25:57.368Z,28.70
2019-05-01T07:28:34.071Z,28.00
2019-05-01T07:31:05.160Z,28.90
2019-05-01T07:33:35.647Z,29.40
2019-05-01T07:36:14.971Z,28.90
2019-05-01T07:38:41.258Z,28.60
2019-05-01T07:41:12.521Z,27.00
2019-05-01T07:43:45.519Z,28.20
2019-05-01T07:46:19.481Z,27.90
2019-05-01T07:48:50.863Z,27.90
2019-05-01T07:51:22.220Z,26.50
2019-05-01T07:53:53.187Z,27.50
2019-05-01T07:56:28.157Z,27.60
2019-05-01T07:58:56.504Z,27.90
2019-05-01T08:01:28.754Z,26.80
2019-05-01T08:03:59.561Z,27.50
2019-05-01T08:06:30.762Z,26.80
2019-05-01T08:09:01.820Z,26.70
2019-05-01T08:11:32.683Z,27.10
2019-05-01T08:14:07.588Z,25.70
2019-05-01T08:16:37.887Z,25.50
2019-05-01T08:19:09.458Z,25.70
2019-05-01T08:21:41.580Z,26.00
2019-05-01T08:24:12.415Z,26.00
2019-05-01T08:26:44.314Z,24.70
2019-05-01T08:29:16.478Z,25.60
2019-05-01T08:31:49.003Z,26.10
2019-05-01T08:34:20.680Z,25.60
2019-05-01T08:36:52.544Z,26.20
2019-05-01T08:39:23.385Z,25.90
2019-05-01T08:41:54.269Z,25.90
2019-05-01T08:44:29.594Z,26.50
2019-05-01T08:46:58.408Z,27.00
2019-05-01T08:49:30.752Z,25.60
2019-05-01T08:52:04.828Z,27.00
2019-05-01T08:54:34.842Z,27.10
2019-05-01T08:57:07.943Z,26.30
2019-05-01T08:59:38.372Z,27.20
2019-05-01T09:02:09.937Z,24.60
2019-05-01T09:04:41.116Z,25.90
2019-05-01T09:07:14.654Z,25.60
2019-05-01T09:09:45.538Z,26.00
2019-05-01T09:12:17.002Z,25.80
2019-05-01T09:14:50.882Z,26.60
2019-05-01T09:17:20.135Z,26.70
2019-05-01T09:19:51.296Z,26.70
2019-05-01T09:22:22.271Z,27.40
2019-05-01T09:24:53.851Z,27.00
2019-05-01T09:27:29.590Z,27.70
2019-05-01T09:29:59.893Z,27.20
2019-05-01T09:32:31.688Z,27.80
2019-05-01T09:35:14.585Z,28.30
2019-05-01T09:37:34.907Z,28.70
2019-05-01T09:40:09.405Z,28.50
2019-05-01T09:42:41.415Z,28.50
2019-05-01T09:45:13.751Z,28.30
2019-05-01T09:47:44.888Z,28.10
2019-05-01T09:50:17.247Z,28.70
2019-05-01T09:52:49.641Z,28.90
2019-05-01T09:55:23.179Z,28.50
2019-05-01T09:57:54.454Z,28.30
2019-05-01T10:00:26.939Z,28.70
2019-05-01T10:02:57.948Z,28.70
2019-05-01T10:05:29.362Z,29.10
2019-05-01T10:08:04.383Z,28.90
2019-05-01T10:10:32.386Z,29.30
2019-05-01T10:13:03.629Z,29.50
2019-05-01T10:15:34.655Z,29.30
2019-05-01T10:18:08.106Z,29.40
2019-05-01T10:20:39.350Z,29.30
2019-05-01T10:23:12.924Z,29.30
2019-05-01T10:25:47.966Z,29.20
2019-05-01T10:28:18.184Z,29.50
2019-05-01T10:30:50.410Z,29.70
2019-05-01T10:33:22.846Z,30.00
2019-05-01T10:35:55.111Z,29.60
2019-05-01T10:38:26.035Z,30.00
2019-05-01T10:40:57.083Z,30.30
2019-05-01T10:43:27.890Z,30.30
2019-05-01T10:45:58.849Z,30.30
2019-05-01T10:48:30.193Z,30.40
2019-05-01T10:51:00.818Z,31.00
2019-05-01T10:53:31.587Z,31.20
2019-05-01T10:56:02.684Z,31.40
2019-05-01T10:58:33.516Z,31.20
2019-05-01T11:01:05.709Z,30.80
2019-05-01T11:03:36.966Z,30.90
2019-05-01T11:06:07.742Z,31.20
2019-05-01T11:08:38.937Z,31.50
2019-05-01T11:11:09.752Z,31.70
2019-05-01T11:13:40.601Z,31.60
2019-05-01T11:16:11.417Z,31.90
2019-05-01T11:18:42.308Z,32.00
2019-05-01T11:21:13.253Z,32.20
2019-05-01T11:23:44.131Z,32.40
2019-05-01T11:26:15.422Z,32.70
2019-05-01T11:28:46.527Z,32.80
2019-05-01T11:31:18.676Z,33.00
2019-05-01T11:33:50.855Z,33.20
2019-05-01T11:36:22.960Z,33.40
2019-05-01T11:38:55.132Z,33.50
2019-05-01T11:41:27.977Z,33.80
2019-05-01T11:44:01.687Z,34.00
2019-05-01T11:46:32.595Z,34.20
2019-05-01T11:49:03.730Z,34.30
2019-05-01T11:51:34.457Z,34.50
2019-05-01T11:54:05.856Z,34.60
2019-05-01T11:56:37.107Z,34.80
2019-05-01T11:59:07.801Z,35.70
2019-05-01T12:01:38.831Z,35.30
2019-05-01T12:04:09.864Z,35.40
2019-05-01T12:06:41.173Z,35.70
2019-05-01T12:09:12.286Z,35.90
2019-05-01T12:11:44.563Z,36.00
2019-05-01T12:14:15.449Z,36.30
2019-05-01T12:16:47.553Z,36.30
2019-05-01T12:19:18.722Z,36.40
2019-05-01T12:21:49.676Z,36.80
2019-05-01T12:24:21.628Z,36.90
2019-05-01T12:26:52.711Z,37.10
2019-05-01T12:29:23.685Z,37.10
2019-05-01T12:31:54.726Z,37.50
2019-05-01T12:34:25.943Z,37.60
2019-05-01T12:36:58.210Z,37.50
2019-05-01T12:39:29.193Z,37.60
2019-05-01T12:42:01.696Z,37.70
2019-05-01T12:44:33.485Z,37.80
2019-05-01T12:47:05.701Z,38.00
2019-05-01T12:49:36.801Z,38.20
2019-05-01T12:52:10.624Z,38.20
2019-05-01T12:54:42.667Z,38.40
2019-05-01T12:57:14.117Z,38.50
2019-05-01T12:59:44.998Z,38.60
2019-05-01T13:02:18.865Z,38.70
2019-05-01T13:04:49.917Z,38.90
2019-05-01T13:07:21.195Z,39.10
2019-05-01T13:09:52.154Z,39.40
2019-05-01T13:12:22.935Z,39.20
2019-05-01T13:14:54.203Z,39.70
2019-05-01T13:17:25.175Z,39.90
